Time;durP1;ratioP1;P1;durP2;ratioP2;P2;SDS_P1;SDS_P2;PMS_P1;PMS_P2;Temp;Humidity;BMP_temperature;BMP_pressure;BME280_temperature;BME280_humidity;BME280_pressure;Samples;Min_cycle;Max_cycle;Signal;HPM_P1;HPM_P2
2022/06/26 00:01:00;;;;;;;2.88;2.47;;;16.50;99.90;;;;;;5101372;28;19916;-61
2022/06/26 00:03:27;;;;;;;3.95;2.90;;;16.50;99.90;;;;;;5101215;28;20040;-61
2022/06/26 00:05:53;;;;;;;5.68;2.63;;;16.50;99.90;;;;;;5101931;28;20043;-61
2022/06/26 00:08:18;;;;;;;;;;;16.50;99.90;;;;;;5102804;28;20507;-60
2022/06/26 00:10:46;;;;;;;3.15;2.85;;;16.40;99.90;;;;;;5101816;28;19912;-61
2022/06/26 00:13:11;;;;;;;4.57;3.35;;;16.40;99.90;;;;;;5102522;28;20075;-61
2022/06/26 00:15:37;;;;;;;;;;;16.40;99.90;;;;;;5101793;28;20071;-60
2022/06/26 00:18:03;;;;;;;3.05;2.75;;;16.30;99.90;;;;;;5093184;28;19962;-60
2022/06/26 00:20:29;;;;;;;;;;;16.30;99.90;;;;;;5088397;28;20726;-60
2022/06/26 00:22:55;;;;;;;5.25;3.17;;;16.30;99.90;;;;;;5088451;28;19912;-60
2022/06/26 00:25:20;;;;;;;;;;;16.30;99.90;;;;;;5088330;28;20495;-61
2022/06/26 00:27:46;;;;;;;3.53;2.92;;;16.20;99.90;;;;;;5089135;28;19923;-61
2022/06/26 00:30:13;;;;;;;4.65;3.10;;;16.20;99.90;;;;;;5088532;28;20535;-61
2022/06/26 00:32:39;;;;;;;5.72;2.90;;;16.20;99.90;;;;;;5087684;28;20153;-61
2022/06/26 00:35:05;;;;;;;;;;;16.20;99.90;;;;;;5089152;28;20512;-61
2022/06/26 00:37:30;;;;;;;4.00;3.15;;;16.10;99.90;;;;;;5088360;28;19969;-61
2022/06/26 00:39:56;;;;;;;;;;;16.10;99.90;;;;;;5077016;28;20532;-61
2022/06/26 00:42:21;;;;;;;5.20;3.08;;;16.10;99.90;;;;;;5070833;28;19970;-61
2022/06/26 00:44:47;;;;;;;;;;;16.10;99.90;;;;;;5068367;28;20041;-62
2022/06/26 00:47:12;;;;;;;6.13;2.92;;;16.10;99.90;;;;;;5086378;28;19931;-62
2022/06/26 00:49:38;;;;;;;3.45;2.60;;;16.10;99.90;;;;;;5088222;28;20070;-62
2022/06/26 00:52:03;;;;;;;;;;;16.10;99.90;;;;;;5088442;28;20047;-62
2022/06/26 00:54:30;;;;;;;3.55;2.88;;;16.10;99.90;;;;;;5087973;28;19927;-62
2022/06/26 00:56:56;;;;;;;4.07;3.05;;;16.10;99.90;;;;;;5086542;28;20508;-62
2022/06/26 00:59:23;;;;;;;4.07;2.92;;;16.10;99.90;;;;;;5087475;28;20078;-62
2022/06/26 01:01:49;;;;;;;6.85;2.97;;;16.00;99.90;;;;;;5085725;28;20104;-62
2022/06/26 01:04:16;;;;;;;;;;;16.00;99.90;;;;;;5087998;28;20032;-62
2022/06/26 01:06:42;;;;;;;6.60;2.80;;;16.00;99.90;;;;;;5087655;28;20308;-62
2022/06/26 01:09:10;;;;;;;3.03;2.63;;;16.00;99.90;;;;;;5088268;28;20051;-62
2022/06/26 01:11:37;;;;;;;3.25;2.67;;;15.90;99.90;;;;;;5089814;28;20077;-62
2022/06/26 01:14:03;;;;;;;4.00;3.05;;;15.90;99.90;;;;;;5088229;28;20587;-62
2022/06/26 01:16:29;;;;;;;3.90;3.08;;;15.90;99.90;;;;;;5094210;28;20542;-62
2022/06/26 01:18:56;;;;;;;7.35;2.65;;;15.80;99.90;;;;;;5096910;28;20050;-62
2022/06/26 01:21:24;;;;;;;7.40;2.65;;;15.80;99.90;;;;;;5095204;28;20036;-62
2022/06/26 01:23:50;;;;;;;3.50;2.50;;;15.80;99.90;;;;;;5108774;28;20036;-61
2022/06/26 01:26:17;;;;;;;5.13;2.95;;;15.80;99.90;;;;;;5103066;28;20121;-62
2022/06/26 01:28:43;;;;;;;3.88;2.90;;;15.80;99.90;;;;;;5088138;28;20036;-62
2022/06/26 01:31:08;;;;;;;;;;;15.80;99.90;;;;;;5090503;28;20038;-62
2022/06/26 01:33:35;;;;;;;9.63;4.63;;;15.80;99.90;;;;;;5108070;28;20298;-62
2022/06/26 01:36:01;;;;;;;7.57;2.78;;;15.80;99.90;;;;;;5090891;28;20050;-62
2022/06/26 01:38:30;;;;;;;;;;;15.80;99.90;;;;;;5091792;28;20032;-62
2022/06/26 01:41:01;;;;;;;6.35;2.50;;;15.80;99.90;;;;;;5085559;28;19920;-62
2022/06/26 01:43:38;;;;;;;4.10;2.30;;;15.80;99.90;;;;;;5088293;28;20071;-63
2022/06/26 01:46:05;;;;;;;9.80;3.30;;;15.80;99.90;;;;;;5086897;28;20125;-63
2022/06/26 01:48:32;;;;;;;4.55;2.53;;;15.80;99.90;;;;;;5092917;28;20081;-63
2022/06/26 01:51:15;;;;;;;3.22;2.67;;;15.70;99.90;;;;;;5088242;28;20114;-63
2022/06/26 01:53:41;;;;;;;5.13;2.80;;;15.70;99.90;;;;;;5068363;28;20033;-63
2022/06/26 01:56:09;;;;;;;;;;;15.70;99.90;;;;;;5078344;28;20423;-63
2022/06/26 01:58:44;;;;;;;3.42;2.83;;;15.70;99.90;;;;;;5068205;28;19927;-63
2022/06/26 02:01:23;;;;;;;3.67;2.38;;;15.70;99.90;;;;;;5066597;28;20056;-63
2022/06/26 02:03:58;;;;;;;5.47;2.78;;;15.70;99.90;;;;;;5085362;28;20032;-63
2022/06/26 02:06:33;;;;;;;6.28;2.80;;;15.80;99.90;;;;;;5069787;28;20139;-63
2022/06/26 02:08:59;;;;;;;;;;;15.80;99.90;;;;;;5088365;28;20206;-63
2022/06/26 02:14:12;;;;;;;6.50;2.10;;;15.80;99.90;;;;;;5048123;28;20041;-63
2022/06/26 02:16:42;;;;;;;4.07;2.75;;;15.90;99.90;;;;;;5061138;28;20633;-63
2022/06/26 02:19:11;;;;;;;3.78;2.80;;;15.80;99.90;;;;;;5066806;28;20591;-63
2022/06/26 02:21:45;;;;;;;5.93;2.60;;;15.80;99.90;;;;;;5068633;28;20037;-63
2022/06/26 02:24:11;;;;;;;;;;;15.90;99.90;;;;;;5088329;28;20801;-63
2022/06/26 02:26:36;;;;;;;3.60;2.17;;;15.90;99.90;;;;;;5083911;28;19966;-62
2022/06/26 02:29:02;;;;;;;6.13;2.78;;;16.00;99.90;;;;;;5067774;28;20039;-63
2022/06/26 02:31:28;;;;;;;;;;;16.10;99.90;;;;;;5067244;28;20040;-63
2022/06/26 02:33:54;;;;;;;3.95;2.13;;;16.10;99.90;;;;;;5067562;28;19920;-63
2022/06/26 02:36:20;;;;;;;3.55;2.15;;;16.20;99.90;;;;;;5067996;28;20089;-63
2022/06/26 02:38:45;;;;;;;;;;;16.20;99.90;;;;;;5067405;28;20542;-62
2022/06/26 02:41:11;;;;;;;2.55;2.00;;;16.30;99.90;;;;;;5067000;28;19917;-62
2022/06/26 02:43:36;;;;;;;;;;;16.30;99.90;;;;;;5067319;28;20463;-62
2022/06/26 02:46:02;;;;;;;4.60;2.40;;;16.30;99.90;;;;;;5058105;28;19920;-62
2022/06/26 02:48:28;;;;;;;;;;;16.20;99.90;;;;;;5067376;28;20036;-62
2022/06/26 02:50:53;;;;;;;3.78;2.45;;;16.20;99.90;;;;;;5066055;28;19917;-62
2022/06/26 02:53:19;;;;;;;2.95;2.38;;;16.10;99.90;;;;;;5066487;28;20037;-62
2022/06/26 02:55:45;;;;;;;;;;;16.10;99.90;;;;;;5065799;28;20074;-62
2022/06/26 02:58:11;;;;;;;4.68;2.20;;;16.10;99.90;;;;;;5066438;28;19920;-62
2022/06/26 03:00:37;;;;;;;;;;;16.10;99.90;;;;;;5067174;28;20079;-62
2022/06/26 03:03:03;;;;;;;4.18;1.95;;;16.00;99.90;;;;;;5073264;28;19916;-62
2022/06/26 03:05:30;;;;;;;3.08;2.30;;;16.00;99.90;;;;;;5070242;28;20116;-62
2022/06/26 03:07:56;;;;;;;5.72;2.42;;;15.90;99.90;;;;;;5071865;28;20102;-62
2022/06/26 03:10:22;;;;;;;;;;;15.90;99.90;;;;;;5087747;28;20047;-62
2022/06/26 03:12:49;;;;;;;6.20;2.30;;;15.80;99.90;;;;;;5084707;28;19916;-62
2022/06/26 03:15:16;;;;;;;2.58;2.35;;;15.80;99.90;;;;;;5068988;28;20528;-62
2022/06/26 03:17:42;;;;;;;3.63;2.63;;;15.70;99.90;;;;;;5066921;28;20568;-62
2022/06/26 03:20:09;;;;;;;;;;;15.80;99.90;;;;;;5069243;28;20119;-63
2022/06/26 03:22:34;;;;;;;4.75;2.35;;;15.70;99.90;;;;;;5066255;28;19974;-62
2022/06/26 03:25:00;;;;;;;;;;;15.70;99.90;;;;;;5087131;28;20075;-63
2022/06/26 03:27:25;;;;;;;2.60;2.20;;;15.80;99.90;;;;;;5086888;28;19973;-63
2022/06/26 03:29:51;;;;;;;;;;;15.80;99.90;;;;;;5068461;28;20039;-62
2022/06/26 03:32:16;;;;;;;4.15;2.67;;;15.80;99.90;;;;;;5065225;28;19920;-62
2022/06/26 03:34:42;;;;;;;;;;;15.70;99.90;;;;;;5082711;28;20048;-62
2022/06/26 03:37:07;;;;;;;2.53;2.30;;;15.70;99.90;;;;;;5068209;28;19982;-62
2022/06/26 03:39:33;;;;;;;;;;;15.70;99.90;;;;;;5066139;28;20048;-62
2022/06/26 03:42:01;;;;;;;4.63;2.40;;;15.80;99.90;;;;;;5066363;28;20206;-62
2022/06/26 03:44:28;;;;;;;2.63;2.20;;;15.80;99.90;;;;;;5078231;28;20287;-62
2022/06/26 03:46:54;;;;;;;2.60;2.22;;;15.90;99.90;;;;;;5070285;28;20037;-62
2022/06/26 03:49:20;;;;;;;3.10;2.67;;;16.00;99.90;;;;;;5076494;28;20036;-62
2022/06/26 03:51:45;;;;;;;;;;;16.10;99.90;;;;;;5083997;28;20036;-62
2022/06/26 03:54:11;;;;;;;4.63;2.20;;;16.10;99.90;;;;;;5066339;28;19923;-62
2022/06/26 03:56:37;;;;;;;;;;;16.10;99.90;;;;;;5062301;28;20176;-62
2022/06/26 03:59:02;;;;;;;3.80;2.45;;;16.20;99.90;;;;;;5068952;28;20415;-62
2022/06/26 04:01:28;;;;;;;;;;;16.20;99.90;;;;;;5068909;28;20040;-62
2022/06/26 04:03:54;;;;;;;5.00;2.58;;;16.20;99.90;;;;;;5071831;28;20017;-62
2022/06/26 04:06:19;;;;;;;;;;;16.30;99.90;;;;;;5070015;28;20044;-62
2022/06/26 04:08:45;;;;;;;2.83;2.05;;;16.30;99.90;;;;;;5071151;28;19916;-62
2022/06/26 04:11:10;;;;;;;;;;;16.30;99.90;;;;;;5069357;28;20044;-62
2022/06/26 04:13:36;;;;;;;2.78;2.28;;;16.40;99.90;;;;;;5069718;28;19924;-62
2022/06/26 04:16:01;;;;;;;3.13;2.30;;;16.50;99.90;;;;;;5089568;28;20553;-62
2022/06/26 04:18:27;;;;;;;;;;;16.60;99.90;;;;;;5080440;28;20090;-62
2022/06/26 04:20:53;;;;;;;2.72;2.08;;;16.80;99.90;;;;;;5069065;28;19974;-62
2022/06/26 04:23:18;;;;;;;3.22;2.10;;;17.10;99.90;;;;;;5069603;28;20404;-62
2022/06/26 04:25:44;;;;;;;2.83;2.15;;;17.30;99.90;;;;;;5086565;28;20048;-62
2022/06/26 04:28:10;;;;;;;;;;;17.30;99.90;;;;;;5090391;28;20032;-62
2022/06/26 04:30:35;;;;;;;2.40;2.10;;;17.30;99.90;;;;;;5072222;28;19923;-62
2022/06/26 04:33:01;;;;;;;;;;;17.40;99.90;;;;;;5069530;28;20028;-61
2022/06/26 04:35:26;;;;;;;5.78;2.05;;;17.70;99.90;;;;;;5079299;28;20702;-62
2022/06/26 04:37:52;;;;;;;;;;;18.00;99.90;;;;;;5070022;28;20041;-62
2022/06/26 04:40:18;;;;;;;3.33;1.90;;;18.30;99.90;;;;;;5080528;28;19919;-61
2022/06/26 04:42:43;;;;;;;;;;;18.50;99.90;;;;;;5089671;28;20086;-62
2022/06/26 04:45:10;;;;;;;2.90;1.92;;;18.60;99.90;;;;;;5078880;28;19916;-62
2022/06/26 04:47:36;;;;;;;3.05;1.85;;;18.60;99.90;;;;;;5069352;28;20052;-62
2022/06/26 04:50:02;;;;;;;;;;;18.60;99.90;;;;;;5074512;28;20050;-61
2022/06/26 04:52:28;;;;;;;2.03;1.70;;;18.50;99.90;;;;;;5067774;28;19916;-62
2022/06/26 04:54:53;;;;;;;2.78;1.95;;;18.40;99.90;;;;;;5074320;28;20032;-62
2022/06/26 04:57:19;;;;;;;1.80;1.30;;;18.40;99.90;;;;;;5068717;28;20044;-61
2022/06/26 04:59:45;;;;;;;1.92;1.30;;;18.90;99.90;;;;;;5072253;28;20115;-62
2022/06/26 05:02:11;;;;;;;1.63;1.10;;;19.20;99.90;;;;;;5087491;28;20128;-62
2022/06/26 05:04:37;;;;;;;3.17;1.10;;;19.20;99.90;;;;;;5082267;28;20049;-62
2022/06/26 05:07:03;;;;;;;1.20;0.90;;;19.20;99.90;;;;;;5088067;28;20040;-62
2022/06/26 05:09:30;;;;;;;1.35;1.00;;;19.40;99.90;;;;;;5086177;28;20051;-62
2022/06/26 05:11:56;;;;;;;0.98;0.85;;;19.40;99.90;;;;;;5067424;28;20118;-61
2022/06/26 05:14:22;;;;;;;2.58;0.82;;;19.40;99.50;;;;;;5065605;28;20626;-62
2022/06/26 05:16:48;;;;;;;;;;;19.30;98.90;;;;;;5069736;28;20123;-62
2022/06/26 05:19:13;;;;;;;1.17;0.80;;;19.40;99.10;;;;;;5059113;28;19924;-61
2022/06/26 05:21:39;;;;;;;;;;;19.40;99.90;;;;;;5069637;28;20070;-62
2022/06/26 05:24:05;;;;;;;1.10;0.52;;;19.40;99.00;;;;;;5067646;28;19991;-60
2022/06/26 05:26:31;;;;;;;7.32;0.90;;;19.40;98.30;;;;;;5068343;28;20041;-61
2022/06/26 05:28:57;;;;;;;4.00;0.75;;;19.40;98.30;;;;;;5065774;28;20044;-61
2022/06/26 05:31:23;;;;;;;1.90;0.70;;;19.30;98.40;;;;;;5066099;28;20060;-61
2022/06/26 05:33:49;;;;;;;;;;;19.40;98.50;;;;;;5068089;28;20125;-61
2022/06/26 05:36:15;;;;;;;0.65;0.60;;;19.60;98.10;;;;;;5064927;28;19931;-62
2022/06/26 05:38:41;;;;;;;0.77;0.70;;;19.90;98.10;;;;;;5067754;28;20036;-61
2022/06/26 05:41:07;;;;;;;0.70;0.60;;;20.30;96.90;;;;;;5066066;28;20048;-60
2022/06/26 05:43:33;;;;;;;2.60;0.70;;;20.10;96.70;;;;;;5066064;28;20059;-64
2022/06/26 05:45:59;;;;;;;1.20;0.70;;;20.00;97.00;;;;;;5072097;28;20044;-60
2022/06/26 05:48:26;;;;;;;1.20;0.70;;;20.20;97.30;;;;;;5067369;28;20101;-63
2022/06/26 05:50:51;;;;;;;2.47;0.60;;;20.30;97.20;;;;;;5072255;28;20048;-62
2022/06/26 05:53:18;;;;;;;3.63;0.80;;;20.20;97.70;;;;;;5067201;28;20147;-62
2022/06/26 05:55:44;;;;;;;0.90;0.85;;;20.20;97.10;;;;;;5071739;28;20043;-62
2022/06/26 05:58:09;;;;;;;1.58;0.80;;;20.30;97.30;;;;;;5081097;28;20036;-61
2022/06/26 06:00:36;;;;;;;1.20;0.70;;;20.20;97.80;;;;;;5065858;28;20029;-61
2022/06/26 06:03:03;;;;;;;1.23;0.68;;;20.40;97.50;;;;;;5067668;28;20149;-60
2022/06/26 06:05:28;;;;;;;1.27;0.70;;;20.50;98.10;;;;;;5065311;28;20072;-62
2022/06/26 06:07:55;;;;;;;0.93;0.80;;;20.40;97.30;;;;;;5068394;28;20129;-60
2022/06/26 06:10:21;;;;;;;0.93;0.60;;;20.40;97.30;;;;;;5066848;28;20616;-61
2022/06/26 06:12:48;;;;;;;0.80;0.70;;;20.20;96.80;;;;;;5066637;28;20631;-60
2022/06/26 06:15:14;;;;;;;0.90;0.70;;;20.00;97.50;;;;;;5066413;28;20559;-61
2022/06/26 06:17:40;;;;;;;0.90;0.80;;;19.90;98.20;;;;;;5064756;28;20053;-61
2022/06/26 06:20:12;;;;;;;;;;;19.90;98.10;;;;;;5066911;28;20519;-60
2022/06/26 06:22:43;;;;;;;0.65;0.57;;;20.40;97.20;;;;;;5065940;28;20034;-60
2022/06/26 06:25:10;;;;;;;0.73;0.60;;;20.30;97.40;;;;;;5058276;28;20048;-60
2022/06/26 06:27:36;;;;;;;5.85;0.70;;;20.10;97.60;;;;;;5065594;28;20043;-60
2022/06/26 06:30:03;;;;;;;1.33;0.68;;;20.10;98.00;;;;;;5066313;28;20131;-60
2022/06/26 06:32:29;;;;;;;3.30;0.90;;;20.20;98.40;;;;;;5062505;28;20112;-60
2022/06/26 06:34:54;;;;;;;2.28;1.25;;;20.40;97.80;;;;;;5064274;28;20553;-61
2022/06/26 06:37:20;;;;;;;4.10;1.45;;;20.70;97.30;;;;;;5061388;28;20036;-61
2022/06/26 06:39:46;;;;;;;1.83;0.90;;;21.10;97.10;;;;;;5065422;28;20059;-61
2022/06/26 06:42:11;;;;;;;1.77;0.75;;;21.10;96.80;;;;;;5068730;28;20093;-61
2022/06/26 06:44:37;;;;;;;1.90;0.88;;;21.00;96.60;;;;;;5066005;28;20110;-61
2022/06/26 06:47:02;;;;;;;2.42;1.02;;;20.80;97.50;;;;;;5065268;28;20040;-60
2022/06/26 06:49:28;;;;;;;3.58;1.20;;;20.60;98.10;;;;;;5061417;28;20040;-61
2022/06/26 06:51:54;;;;;;;1.38;0.75;;;20.40;97.60;;;;;;5065975;28;20442;-60
2022/06/26 06:54:19;;;;;;;1.23;1.00;;;20.30;98.30;;;;;;5066027;28;20045;-60
2022/06/26 06:56:45;;;;;;;1.98;1.10;;;20.20;98.10;;;;;;5071605;28;20177;-60
2022/06/26 06:59:10;;;;;;;4.45;1.00;;;20.20;98.50;;;;;;5086949;28;20143;-61
2022/06/26 07:01:36;;;;;;;2.25;0.88;;;20.20;98.80;;;;;;5083157;28;20075;-61
2022/06/26 07:04:02;;;;;;;1.70;0.82;;;20.20;98.80;;;;;;5066755;28;20040;-60
2022/06/26 07:06:28;;;;;;;2.63;0.90;;;20.20;98.80;;;;;;5066046;28;20400;-61
2022/06/26 07:08:53;;;;;;;2.25;1.20;;;20.10;98.70;;;;;;5067105;28;20036;-60
2022/06/26 07:11:19;;;;;;;1.27;1.10;;;20.10;99.10;;;;;;5066286;28;20043;-61
2022/06/26 07:13:45;;;;;;;2.45;1.27;;;20.20;98.60;;;;;;5063420;28;20075;-61
2022/06/26 07:16:11;;;;;;;;;;;20.30;98.70;;;;;;5066296;28;20617;-61
2022/06/26 07:18:37;;;;;;;7.25;1.55;;;20.40;99.00;;;;;;5066127;28;20015;-66
2022/06/26 07:21:03;;;;;;;1.90;1.48;;;20.50;98.60;;;;;;5068552;28;20627;-61
2022/06/26 07:23:29;;;;;;;1.35;1.20;;;20.40;98.60;;;;;;5080955;28;20404;-60
2022/06/26 07:25:56;;;;;;;1.13;1.02;;;20.30;98.90;;;;;;5086497;28;20385;-61
2022/06/26 07:28:22;;;;;;;2.20;1.20;;;20.30;99.90;;;;;;5074268;28;20032;-60
2022/06/26 07:30:48;;;;;;;2.25;1.20;;;20.20;99.30;;;;;;5069242;28;20653;-61
2022/06/26 07:35:59;;;;;;;2.63;1.30;;;20.10;99.40;;;;;;5089876;28;20048;-60
2022/06/26 07:38:24;;;;;;;3.15;1.38;;;20.20;99.90;;;;;;5076588;28;20044;-61
2022/06/26 07:40:50;;;;;;;2.90;1.40;;;20.20;99.30;;;;;;5069321;28;20090;-60
2022/06/26 07:43:15;;;;;;;2.30;1.30;;;20.40;99.40;;;;;;5081138;28;20079;-61
2022/06/26 07:45:41;;;;;;;1.83;1.50;;;20.50;99.70;;;;;;5070400;28;20033;-61
2022/06/26 07:48:07;;;;;;;1.70;1.35;;;20.70;99.90;;;;;;5078720;28;20048;-61
2022/06/26 07:50:32;;;;;;;2.33;1.80;;;20.60;99.90;;;;;;5073987;28;20166;-61
2022/06/26 07:52:58;;;;;;;1.58;1.35;;;20.60;99.70;;;;;;5076758;28;20028;-61
2022/06/26 07:55:23;;;;;;;2.15;1.40;;;20.60;98.90;;;;;;5085695;28;20056;-60
2022/06/26 07:57:49;;;;;;;2.30;1.40;;;20.60;98.70;;;;;;5068873;28;20090;-61
2022/06/26 08:00:15;;;;;;;2.60;1.40;;;20.60;99.10;;;;;;5067906;28;20071;-61
2022/06/26 08:02:40;;;;;;;2.80;1.30;;;20.70;98.40;;;;;;5068780;28;20047;-61
2022/06/26 08:05:07;;;;;;;3.45;1.55;;;20.70;98.60;;;;;;5067435;28;20036;-61
2022/06/26 08:07:33;;;;;;;2.25;1.45;;;20.90;99.00;;;;;;5069177;28;20041;-61
2022/06/26 08:09:58;;;;;;;2.03;1.23;;;21.50;97.60;;;;;;5069135;28;20090;-62
2022/06/26 08:12:24;;;;;;;3.33;1.00;;;22.50;95.90;;;;;;5069143;28;20044;-61
2022/06/26 08:14:50;;;;;;;2.63;1.42;;;23.80;94.50;;;;;;5090042;28;20040;-61
2022/06/26 08:17:15;;;;;;;5.82;1.55;;;24.10;92.70;;;;;;5075144;28;20051;-61
2022/06/26 08:19:41;;;;;;;2.75;1.38;;;23.90;93.80;;;;;;5068587;28;20041;-62
2022/06/26 08:22:07;;;;;;;2.70;1.50;;;23.60;93.80;;;;;;5068564;28;20040;-61
2022/06/26 08:24:36;;;;;;;4.82;1.85;;;23.60;94.00;;;;;;5068315;28;20105;-61
2022/06/26 08:27:07;;;;;;;1.35;1.25;;;23.10;94.40;;;;;;5067355;28;20048;-61
2022/06/26 08:29:33;;;;;;;2.97;1.35;;;22.70;96.00;;;;;;5067608;28;20041;-61
2022/06/26 08:31:59;;;;;;;2.03;1.20;;;22.60;95.80;;;;;;5068667;28;20043;-61
2022/06/26 08:34:24;;;;;;;8.48;1.40;;;22.50;96.10;;;;;;5069221;28;20056;-61
2022/06/26 08:36:51;;;;;;;2.83;1.77;;;22.80;95.20;;;;;;5069410;28;20044;-61
2022/06/26 08:39:16;;;;;;;1.70;1.50;;;23.30;95.00;;;;;;5068148;28;20048;-61
2022/06/26 08:41:45;;;;;;;1.83;1.30;;;24.10;95.30;;;;;;5070791;28;20485;-62
2022/06/26 08:44:11;;;;;;;1.48;1.08;;;25.70;93.80;;;;;;5068455;28;20032;-62
2022/06/26 08:46:39;;;;;;;2.92;1.50;;;27.30;90.90;;;;;;5068925;28;20127;-62
2022/06/26 08:49:11;;;;;;;2.65;1.20;;;28.40;85.30;;;;;;5074878;28;20035;-62
2022/06/26 08:51:39;;;;;;;2.80;1.00;;;29.30;81.60;;;;;;5067611;28;20036;-63
2022/06/26 08:54:06;;;;;;;1.63;0.98;;;29.60;77.90;;;;;;5076478;28;20411;-62
2022/06/26 08:56:33;;;;;;;1.38;0.93;;;29.20;78.40;;;;;;5075443;28;20091;-62
2022/06/26 08:58:59;;;;;;;1.48;0.88;;;28.80;79.60;;;;;;5075286;28;20043;-62
2022/06/26 09:01:24;;;;;;;1.60;1.10;;;27.90;81.30;;;;;;5087641;28;20058;-62
2022/06/26 09:03:50;;;;;;;2.08;1.48;;;26.90;85.10;;;;;;5083571;28;20032;-61
2022/06/26 09:06:16;;;;;;;2.33;1.27;;;25.70;88.80;;;;;;5068197;28;20106;-62
2022/06/26 09:08:48;;;;;;;1.88;1.25;;;25.10;89.70;;;;;;5068028;28;20370;-61
2022/06/26 09:11:15;;;;;;;4.13;1.10;;;24.80;90.70;;;;;;5067933;28;20047;-61
2022/06/26 09:13:43;;;;;;;1.23;1.05;;;24.50;90.80;;;;;;5070325;28;20059;-61
2022/06/26 09:16:09;;;;;;;1.60;1.13;;;24.40;90.20;;;;;;5087682;28;20052;-60
2022/06/26 09:18:37;;;;;;;1.80;1.23;;;24.10;91.20;;;;;;5079493;28;20525;-60
2022/06/26 09:21:04;;;;;;;2.20;1.42;;;23.70;92.10;;;;;;5069269;28;20040;-61
2022/06/26 09:23:34;;;;;;;2.47;1.30;;;23.30;93.00;;;;;;5067749;28;20040;-61
2022/06/26 09:26:01;;;;;;;1.92;1.50;;;23.20;92.90;;;;;;5048986;28;20056;-61
2022/06/26 09:28:27;;;;;;;1.70;1.52;;;23.10;93.20;;;;;;5070035;28;20150;-61
2022/06/26 09:31:00;;;;;;;2.30;1.60;;;23.00;93.70;;;;;;5085861;28;20492;-61
2022/06/26 09:33:34;;;;;;;5.43;1.73;;;22.90;94.10;;;;;;5087954;28;20054;-61
2022/06/26 09:36:01;;;;;;;3.42;1.75;;;22.80;94.10;;;;;;5069112;28;20040;-61
2022/06/26 09:38:35;;;;;;;2.00;1.70;;;22.80;94.40;;;;;;5068092;28;20048;-61
2022/06/26 09:41:07;;;;;;;2.13;1.35;;;22.60;94.40;;;;;;5066589;28;20041;-61
2022/06/26 09:43:36;;;;;;;2.13;1.58;;;22.50;94.90;;;;;;5064679;28;20048;-61
2022/06/26 09:46:04;;;;;;;1.60;1.50;;;22.50;95.00;;;;;;5075131;28;20052;-61
2022/06/26 09:48:30;;;;;;;2.13;1.52;;;22.40;94.90;;;;;;5067255;28;20396;-61
2022/06/26 09:50:56;;;;;;;3.45;1.33;;;22.20;95.40;;;;;;5065435;28;20044;-61
2022/06/26 09:53:24;;;;;;;1.98;1.60;;;22.20;95.70;;;;;;5067417;28;20036;-61
2022/06/26 09:55:51;;;;;;;2.22;1.60;;;22.10;95.10;;;;;;5067840;28;20137;-61
2022/06/26 09:58:17;;;;;;;1.77;1.58;;;22.10;95.60;;;;;;5060206;28;20396;-61
2022/06/26 10:06:25;;;;;;;2.45;1.83;;;22.10;95.70;;;;;;5067117;28;20039;-61
2022/06/26 10:06:28;;;;;;;2.85;1.85;;;21.90;95.80;;;;;;5067076;28;20048;-62
2022/06/26 10:08:59;;;;;;;7.25;2.13;;;21.70;96.40;;;;;;5066985;28;20079;-62
2022/06/26 10:11:27;;;;;;;5.72;2.00;;;21.60;96.50;;;;;;5067486;28;20036;-62
2022/06/26 10:13:57;;;;;;;5.78;1.95;;;21.50;97.80;;;;;;5066859;28;20041;-61
2022/06/26 10:16:54;;;;;;;2.65;2.05;;;21.50;97.00;;;;;;5084116;28;20044;-62
2022/06/26 10:19:24;;;;;;;2.85;1.90;;;21.50;97.90;;;;;;5072415;28;20036;-62
2022/06/26 10:21:51;;;;;;;2.42;1.50;;;21.60;97.00;;;;;;5065047;28;20048;-61
2022/06/26 10:24:16;;;;;;;2.38;2.15;;;21.70;97.60;;;;;;5062238;28;20311;-63
2022/06/26 10:26:57;;;;;;;2.53;2.33;;;21.90;97.10;;;;;;5066402;28;20698;-61
2022/06/26 10:29:38;;;;;;;2.38;2.17;;;22.00;96.70;;;;;;5065468;28;20435;-63
2022/06/26 10:32:06;;;;;;;3.30;2.67;;;21.80;97.10;;;;;;5067102;28;20052;-63
2022/06/26 10:34:33;;;;;;;3.50;2.50;;;21.90;97.20;;;;;;5067129;28;20036;-63
2022/06/26 10:37:04;;;;;;;3.50;2.20;;;22.10;96.90;;;;;;5077047;28;20048;-63
2022/06/26 10:39:42;;;;;;;4.93;2.10;;;22.00;96.60;;;;;;5064314;28;20032;-63
2022/06/26 10:45:29;;;;;;;3.30;2.08;;;21.80;96.70;;;;;;5065707;28;20032;-63
2022/06/26 10:47:57;;;;;;;2.97;2.08;;;21.90;97.10;;;;;;5066873;28;20166;-62
2022/06/26 10:50:45;;;;;;;2.83;2.15;;;21.90;97.00;;;;;;5072210;28;20039;-61
2022/06/26 10:53:14;;;;;;;2.40;2.20;;;21.70;96.50;;;;;;5067648;28;20036;-63
2022/06/26 10:55:42;;;;;;;2.55;2.10;;;21.50;97.40;;;;;;5069948;28;20032;-61
2022/06/26 10:58:09;;;;;;;3.60;2.45;;;21.40;97.60;;;;;;5086714;28;20079;-62
2022/06/26 11:00:34;;;;;;;2.40;1.88;;;21.50;97.50;;;;;;5082274;28;20067;-62
2022/06/26 11:03:00;;;;;;;2.30;2.10;;;21.50;97.20;;;;;;5066139;28;20667;-60
2022/06/26 11:05:28;;;;;;;3.30;2.30;;;21.70;97.60;;;;;;5066336;28;20064;-61
2022/06/26 11:07:55;;;;;;;3.10;2.25;;;21.70;96.90;;;;;;5066049;28;20123;-61
2022/06/26 11:10:22;;;;;;;2.67;2.40;;;21.60;97.40;;;;;;5065849;28;20576;-60
2022/06/26 11:12:50;;;;;;;2.63;2.20;;;21.60;96.80;;;;;;5046325;28;20384;-60
2022/06/26 11:15:33;;;;;;;1.92;1.70;;;21.60;96.80;;;;;;5045960;28;20041;-61
2022/06/26 11:18:02;;;;;;;2.47;2.05;;;21.60;98.10;;;;;;5058775;28;20036;-61
2022/06/26 11:20:46;;;;;;;2.78;2.22;;;21.60;98.10;;;;;;5065875;28;20048;-61
2022/06/26 11:23:20;;;;;;;2.40;1.85;;;21.60;98.30;;;;;;5058958;28;20475;-61
2022/06/26 11:25:47;;;;;;;3.45;2.40;;;21.60;98.00;;;;;;5060279;28;20063;-61
2022/06/26 11:28:14;;;;;;;3.25;2.33;;;21.50;98.00;;;;;;5068664;28;20045;-61
2022/06/26 11:30:41;;;;;;;2.55;2.15;;;21.40;97.80;;;;;;5061478;28;20065;-60
2022/06/26 11:33:08;;;;;;;3.80;2.33;;;21.30;97.70;;;;;;5062869;28;20394;-60
2022/06/26 11:35:34;;;;;;;2.90;2.17;;;21.30;97.60;;;;;;5063965;28;20067;-60
2022/06/26 11:38:12;;;;;;;3.10;2.13;;;21.20;98.00;;;;;;5067359;28;20040;-60
2022/06/26 11:40:38;;;;;;;2.45;2.25;;;21.20;99.00;;;;;;5064971;28;20052;-60
2022/06/26 11:43:04;;;;;;;4.18;2.47;;;21.10;99.90;;;;;;5065909;28;20098;-61
2022/06/26 11:45:32;;;;;;;3.47;2.60;;;21.10;99.90;;;;;;5066456;28;20412;-61
2022/06/26 11:48:00;;;;;;;5.82;3.67;;;21.00;99.90;;;;;;5065513;28;20041;-61
2022/06/26 11:50:29;;;;;;;3.63;3.30;;;20.90;99.90;;;;;;5062852;28;20036;-61
2022/06/26 11:52:56;;;;;;;4.00;3.60;;;20.70;99.90;;;;;;5065440;28;20566;-61
2022/06/26 11:55:23;;;;;;;3.33;3.03;;;20.70;99.90;;;;;;5065506;28;20041;-61
2022/06/26 11:57:49;;;;;;;4.50;3.42;;;20.70;99.90;;;;;;5064474;28;20824;-61
2022/06/26 12:00:19;;;;;;;5.60;3.88;;;20.60;99.90;;;;;;5060108;28;20032;-62
2022/06/26 12:02:46;;;;;;;4.40;3.75;;;20.60;99.90;;;;;;5087681;28;20036;-61
2022/06/26 12:05:12;;;;;;;10.80;3.83;;;20.40;99.90;;;;;;5085324;28;20491;-62
2022/06/26 12:07:48;;;;;;;6.93;4.25;;;20.30;99.90;;;;;;5091962;28;20074;-61
2022/06/26 12:10:35;;;;;;;4.75;3.63;;;20.30;99.90;;;;;;5084793;28;20048;-62
2022/06/26 12:13:02;;;;;;;6.13;3.75;;;20.20;99.90;;;;;;5090087;28;20048;-61
2022/06/26 12:15:32;;;;;;;4.03;3.50;;;20.20;99.90;;;;;;5087835;28;20036;-60
2022/06/26 12:17:59;;;;;;;7.63;3.95;;;20.10;99.90;;;;;;5089607;28;20052;-62
2022/06/26 12:20:27;;;;;;;7.55;4.55;;;20.00;99.90;;;;;;5089174;28;20526;-61
2022/06/26 12:22:54;;;;;;;7.10;4.88;;;19.90;99.90;;;;;;5101079;28;20047;-61
2022/06/26 12:25:28;;;;;;;5.82;5.18;;;19.80;99.90;;;;;;5109101;28;20043;-61
2022/06/26 12:27:54;;;;;;;7.85;5.88;;;19.60;99.90;;;;;;5099013;28;20052;-61
2022/06/26 12:30:21;;;;;;;9.10;5.50;;;19.50;99.90;;;;;;5087334;28;20164;-61
2022/06/26 12:32:47;;;;;;;7.82;6.10;;;19.30;99.90;;;;;;5068092;28;20052;-61
2022/06/26 12:35:13;;;;;;;;;;;19.20;99.90;;;;;;5069412;28;20036;-61
2022/06/26 12:37:39;;;;;;;7.07;5.15;;;19.20;99.90;;;;;;5069016;28;19923;-61
2022/06/26 12:40:05;;;;;;;;;;;19.20;99.90;;;;;;5068968;28;20032;-61
2022/06/26 12:42:30;;;;;;;5.97;5.38;;;19.30;99.90;;;;;;5068378;28;20631;-61
2022/06/26 12:44:56;;;;;;;;;;;19.40;99.90;;;;;;5082065;28;20051;-60
2022/06/26 12:47:21;;;;;;;8.85;5.97;;;19.30;99.90;;;;;;5074759;28;19969;-61
2022/06/26 12:49:47;;;;;;;;;;;19.40;99.90;;;;;;5068995;28;20048;-61
2022/06/26 12:52:13;;;;;;;8.70;6.88;;;19.30;99.90;;;;;;5068152;28;19921;-61
2022/06/26 12:54:38;;;;;;;9.70;5.63;;;19.20;99.90;;;;;;5068280;28;20055;-61
2022/06/26 12:57:04;;;;;;;11.43;6.32;;;19.10;99.90;;;;;;5068657;28;20133;-62
2022/06/26 12:59:30;;;;;;;;;;;19.10;99.90;;;;;;5068327;28;20056;-65
2022/06/26 13:01:55;;;;;;;8.52;6.10;;;19.10;99.90;;;;;;5067165;28;19978;-62
2022/06/26 13:04:21;;;;;;;9.77;5.80;;;19.10;99.90;;;;;;5079952;28;20465;-63
2022/06/26 13:06:46;;;;;;;;;;;19.10;99.90;;;;;;5067894;28;20688;-62
2022/06/26 13:09:12;;;;;;;4.95;4.45;;;19.10;99.90;;;;;;5084323;28;20014;-63
2022/06/26 13:11:38;;;;;;;;;;;19.20;99.90;;;;;;5088465;28;20075;-62